sensor_id;sensor_type;location;lat;lon;timestamp;temperature;humidity
4079;DHT22;2054;47.858;11.156;2023-12-07T03:47:15;2.60;99.90
4079;DHT22;2054;47.858;11.156;2023-12-07T03:49:44;2.60;99.90
4079;DHT22;2054;47.858;11.156;2023-12-07T03:52:11;2.60;99.90
4079;DHT22;2054;47.858;11.156;2023-12-07T03:54:38;2.50;99.90
4079;DHT22;2054;47.858;11.156;2023-12-07T03:57:05;2.50;99.90
4079;DHT22;2054;47.858;11.156;2023-12-07T03:59:32;2.60;99.90
4079;DHT22;2054;47.858;11.156;2023-12-07T04:01:59;2.50;99.90
4079;DHT22;2054;47.858;11.156;2023-12-07T04:04:27;2.60;99.90
4079;DHT22;2054;47.858;11.156;2023-12-07T04:06:54;2.60;99.90
4079;DHT22;2054;47.858;11.156;2023-12-07T04:09:21;2.60;99.90
4079;DHT22;2054;47.858;11.156;2023-12-07T04:11:49;2.60;99.90
4079;DHT22;2054;47.858;11.156;2023-12-07T04:14:16;2.60;99.90
4079;DHT22;2054;47.858;11.156;2023-12-07T04:16:43;2.60;99.90
4079;DHT22;2054;47.858;11.156;2023-12-07T04:19:11;2.60;99.90
4079;DHT22;2054;47.858;11.156;2023-12-07T04:21:39;2.60;99.90
4079;DHT22;2054;47.858;11.156;2023-12-07T04:24:06;2.60;99.90
4079;DHT22;2054;47.858;11.156;2023-12-07T04:26:33;2.70;99.90
4079;DHT22;2054;47.858;11.156;2023-12-07T04:28:59;2.70;99.90
4079;DHT22;2054;47.858;11.156;2023-12-07T04:31:26;2.70;99.90
4079;DHT22;2054;47.858;11.156;2023-12-07T04:33:53;2.60;99.90
4079;DHT22;2054;47.858;11.156;2023-12-07T04:36:20;2.60;99.90
4079;DHT22;2054;47.858;11.156;2023-12-07T04:38:48;2.60;99.90
4079;DHT22;2054;47.858;11.156;2023-12-07T04:41:15;2.60;99.90
4079;DHT22;2054;47.858;11.156;2023-12-07T04:43:42;2.50;99.90
4079;DHT22;2054;47.858;11.156;2023-12-07T04:46:09;2.40;99.90
4079;DHT22;2054;47.858;11.156;2023-12-07T04:48:36;2.30;99.90
4079;DHT22;2054;47.858;11.156;2023-12-07T04:51:02;2.10;99.90
4079;DHT22;2054;47.858;11.156;2023-12-07T04:53:29;2.00;99.90
4079;DHT22;2054;47.858;11.156;2023-12-07T04:55:57;1.90;99.90
4079;DHT22;2054;47.858;11.156;2023-12-07T04:58:25;2.10;99.90
4079;DHT22;2054;47.858;11.156;2023-12-07T05:00:51;1.70;99.90
4079;DHT22;2054;47.858;11.156;2023-12-07T05:03:18;1.50;99.90
4079;DHT22;2054;47.858;11.156;2023-12-07T05:05:45;1.50;99.90
4079;DHT22;2054;47.858;11.156;2023-12-07T05:08:13;1.40;99.90
4079;DHT22;2054;47.858;11.156;2023-12-07T05:10:40;1.50;99.90
4079;DHT22;2054;47.858;11.156;2023-12-07T05:13:08;1.40;99.90
4079;DHT22;2054;47.858;11.156;2023-12-07T05:15:35;1.40;99.90
4079;DHT22;2054;47.858;11.156;2023-12-07T05:18:03;1.40;99.90
4079;DHT22;2054;47.858;11.156;2023-12-07T05:20:30;1.40;99.90
4079;DHT22;2054;47.858;11.156;2023-12-07T05:22:57;1.30;99.90
4079;DHT22;2054;47.858;11.156;2023-12-07T05:25:24;1.10;99.90
4079;DHT22;2054;47.858;11.156;2023-12-07T05:27:51;1.10;99.90
4079;DHT22;2054;47.858;11.156;2023-12-07T05:30:20;1.10;99.90
4079;DHT22;2054;47.858;11.156;2023-12-07T05:32:47;1.00;99.90
4079;DHT22;2054;47.858;11.156;2023-12-07T05:35:14;1.30;99.90
4079;DHT22;2054;47.858;11.156;2023-12-07T05:37:41;0.90;99.90
4079;DHT22;2054;47.858;11.156;2023-12-07T05:40:09;0.80;99.90
4079;DHT22;2054;47.858;11.156;2023-12-07T05:42:38;0.70;99.90
4079;DHT22;2054;47.858;11.156;2023-12-07T05:45:06;0.70;99.90
4079;DHT22;2054;47.858;11.156;2023-12-07T05:47:37;0.70;99.90
4079;DHT22;2054;47.858;11.156;2023-12-07T05:50:05;0.60;99.90
4079;DHT22;2054;47.858;11.156;2023-12-07T05:52:32;0.50;99.90
4079;DHT22;2054;47.858;11.156;2023-12-07T05:54:59;0.40;99.90
4079;DHT22;2054;47.858;11.156;2023-12-07T05:57:27;0.30;99.90
4079;DHT22;2054;47.858;11.156;2023-12-07T05:59:58;0.30;99.90
4079;DHT22;2054;47.858;11.156;2023-12-07T06:02:25;0.30;99.90
4079;DHT22;2054;47.858;11.156;2023-12-07T06:04:53;0.30;99.90
4079;DHT22;2054;47.858;11.156;2023-12-07T06:07:21;0.30;99.90
4079;DHT22;2054;47.858;11.156;2023-12-07T06:09:49;0.20;99.90
4079;DHT22;2054;47.858;11.156;2023-12-07T06:12:16;0.20;99.90
4079;DHT22;2054;47.858;11.156;2023-12-07T06:14:43;0.20;99.90
4079;DHT22;2054;47.858;11.156;2023-12-07T06:17:10;0.20;99.90
4079;DHT22;2054;47.858;11.156;2023-12-07T06:19:37;0.20;99.90
4079;DHT22;2054;47.858;11.156;2023-12-07T06:22:06;0.20;99.90
4079;DHT22;2054;47.858;11.156;2023-12-07T06:24:33;0.10;99.90
4079;DHT22;2054;47.858;11.156;2023-12-07T06:27:02;0.10;99.90
4079;DHT22;2054;47.858;11.156;2023-12-07T06:29:29;0.00;99.90
4079;DHT22;2054;47.858;11.156;2023-12-07T06:31:57;-0.10;99.90
4079;DHT22;2054;47.858;11.156;2023-12-07T06:34:24;-0.10;99.90
4079;DHT22;2054;47.858;11.156;2023-12-07T06:36:50;0.00;99.90
4079;DHT22;2054;47.858;11.156;2023-12-07T06:39:19;-0.20;99.90
4079;DHT22;2054;47.858;11.156;2023-12-07T06:41:46;-0.30;99.90
4079;DHT22;2054;47.858;11.156;2023-12-07T06:44:13;-0.30;99.90
4079;DHT22;2054;47.858;11.156;2023-12-07T06:46:40;-0.30;99.90
4079;DHT22;2054;47.858;11.156;2023-12-07T06:49:07;-0.30;99.90
4079;DHT22;2054;47.858;11.156;2023-12-07T06:51:34;-0.30;99.90
4079;DHT22;2054;47.858;11.156;2023-12-07T06:54:01;-0.30;99.90
4079;DHT22;2054;47.858;11.156;2023-12-07T06:56:29;-0.40;99.90
4079;DHT22;2054;47.858;11.156;2023-12-07T06:58:56;-0.40;99.90
4079;DHT22;2054;47.858;11.156;2023-12-07T07:01:23;-0.50;99.90
4079;DHT22;2054;47.858;11.156;2023-12-07T07:03:51;-0.50;99.90
4079;DHT22;2054;47.858;11.156;2023-12-07T07:06:21;-0.50;99.90
4079;DHT22;2054;47.858;11.156;2023-12-07T07:08:48;-0.50;99.90
4079;DHT22;2054;47.858;11.156;2023-12-07T07:11:15;-0.40;99.90
4079;DHT22;2054;47.858;11.156;2023-12-07T07:13:43;-0.30;99.90
4079;DHT22;2054;47.858;11.156;2023-12-07T07:16:10;-0.30;99.90
4079;DHT22;2054;47.858;11.156;2023-12-07T07:18:38;-0.20;99.90
4079;DHT22;2054;47.858;11.156;2023-12-07T07:21:05;-0.10;99.90
4079;DHT22;2054;47.858;11.156;2023-12-07T07:23:32;-0.10;99.90
4079;DHT22;2054;47.858;11.156;2023-12-07T07:25:59;-0.20;99.90
4079;DHT22;2054;47.858;11.156;2023-12-07T07:28:26;-0.10;99.90
4079;DHT22;2054;47.858;11.156;2023-12-07T07:30:54;0.00;99.90
4079;DHT22;2054;47.858;11.156;2023-12-07T07:33:21;0.20;99.90
4079;DHT22;2054;47.858;11.156;2023-12-07T07:35:50;0.20;99.90
4079;DHT22;2054;47.858;11.156;2023-12-07T07:38:16;0.20;99.90
4079;DHT22;2054;47.858;11.156;2023-12-07T07:40:44;0.20;99.90
4079;DHT22;2054;47.858;11.156;2023-12-07T07:43:13;0.30;99.90
4079;DHT22;2054;47.858;11.156;2023-12-07T07:45:39;0.40;99.90
4079;DHT22;2054;47.858;11.156;2023-12-07T07:48:08;0.50;99.90
4079;DHT22;2054;47.858;11.156;2023-12-07T07:50:35;0.60;99.90
4079;DHT22;2054;47.858;11.156;2023-12-07T07:53:03;0.60;99.90
4079;DHT22;2054;47.858;11.156;2023-12-07T07:55:31;0.50;99.90
4079;DHT22;2054;47.858;11.156;2023-12-07T07:57:58;0.80;99.90
4079;DHT22;2054;47.858;11.156;2023-12-07T08:00:25;0.50;99.90
4079;DHT22;2054;47.858;11.156;2023-12-07T08:02:53;0.50;99.90
4079;DHT22;2054;47.858;11.156;2023-12-07T08:05:22;0.60;99.90
4079;DHT22;2054;47.858;11.156;2023-12-07T08:07:49;0.50;99.90
4079;DHT22;2054;47.858;11.156;2023-12-07T08:10:16;0.60;99.90
4079;DHT22;2054;47.858;11.156;2023-12-07T08:12:44;0.60;99.90
4079;DHT22;2054;47.858;11.156;2023-12-07T08:15:10;0.90;99.90
4079;DHT22;2054;47.858;11.156;2023-12-07T08:17:38;0.60;99.90
4079;DHT22;2054;47.858;11.156;2023-12-07T08:20:07;0.70;99.90
4079;DHT22;2054;47.858;11.156;2023-12-07T08:22:36;0.80;99.90
4079;DHT22;2054;47.858;11.156;2023-12-07T08:25:03;0.80;99.90
4079;DHT22;2054;47.858;11.156;2023-12-07T08:27:31;0.90;99.90
4079;DHT22;2054;47.858;11.156;2023-12-07T08:29:58;1.00;99.90
4079;DHT22;2054;47.858;11.156;2023-12-07T08:32:25;1.00;99.90
4079;DHT22;2054;47.858;11.156;2023-12-07T08:34:52;1.10;99.90
4079;DHT22;2054;47.858;11.156;2023-12-07T08:37:20;1.10;99.90
4079;DHT22;2054;47.858;11.156;2023-12-07T08:39:48;1.10;99.90
4079;DHT22;2054;47.858;11.156;2023-12-07T08:42:15;1.10;99.90
4079;DHT22;2054;47.858;11.156;2023-12-07T08:44:42;1.10;99.90
4079;DHT22;2054;47.858;11.156;2023-12-07T08:47:09;1.20;99.90
4079;DHT22;2054;47.858;11.156;2023-12-07T08:49:38;1.20;99.90
4079;DHT22;2054;47.858;11.156;2023-12-07T08:52:05;1.30;99.90
4079;DHT22;2054;47.858;11.156;2023-12-07T08:54:32;1.30;99.90
4079;DHT22;2054;47.858;11.156;2023-12-07T08:57:00;1.20;99.90
4079;DHT22;2054;47.858;11.156;2023-12-07T08:59:27;1.30;99.90
4079;DHT22;2054;47.858;11.156;2023-12-07T09:01:55;1.60;99.90
4079;DHT22;2054;47.858;11.156;2023-12-07T09:04:22;1.40;99.90
4079;DHT22;2054;47.858;11.156;2023-12-07T09:06:49;1.40;99.90
4079;DHT22;2054;47.858;11.156;2023-12-07T09:09:16;1.50;99.90
4079;DHT22;2054;47.858;11.156;2023-12-07T09:11:43;1.60;99.90
4079;DHT22;2054;47.858;11.156;2023-12-07T09:14:11;1.60;99.90
4079;DHT22;2054;47.858;11.156;2023-12-07T09:16:43;1.70;99.90
4079;DHT22;2054;47.858;11.156;2023-12-07T09:19:10;1.70;99.90
4079;DHT22;2054;47.858;11.156;2023-12-07T09:21:37;1.80;99.90
4079;DHT22;2054;47.858;11.156;2023-12-07T09:24:05;1.90;99.90
4079;DHT22;2054;47.858;11.156;2023-12-07T09:26:32;2.00;99.90
4079;DHT22;2054;47.858;11.156;2023-12-07T09:28:59;2.00;99.90
4079;DHT22;2054;47.858;11.156;2023-12-07T09:31:27;2.10;99.90
4079;DHT22;2054;47.858;11.156;2023-12-07T09:33:54;2.20;99.90
4079;DHT22;2054;47.858;11.156;2023-12-07T09:36:21;2.30;99.90
4079;DHT22;2054;47.858;11.156;2023-12-07T09:38:49;2.30;99.90
4079;DHT22;2054;47.858;11.156;2023-12-07T09:41:16;2.30;99.90
4079;DHT22;2054;47.858;11.156;2023-12-07T09:43:43;2.30;99.90
4079;DHT22;2054;47.858;11.156;2023-12-07T09:46:10;2.40;99.90
4079;DHT22;2054;47.858;11.156;2023-12-07T09:48:42;2.40;99.90
4079;DHT22;2054;47.858;11.156;2023-12-07T09:51:10;2.40;99.90
4079;DHT22;2054;47.858;11.156;2023-12-07T09:53:38;2.50;99.90
4079;DHT22;2054;47.858;11.156;2023-12-07T09:56:08;2.50;99.90
4079;DHT22;2054;47.858;11.156;2023-12-07T09:58:35;2.60;99.90
4079;DHT22;2054;47.858;11.156;2023-12-07T10:01:04;2.80;99.90
4079;DHT22;2054;47.858;11.156;2023-12-07T10:03:30;2.90;99.90
4079;DHT22;2054;47.858;11.156;2023-12-07T10:05:58;3.00;99.90
4079;DHT22;2054;47.858;11.156;2023-12-07T10:08:28;3.10;99.90
4079;DHT22;2054;47.858;11.156;2023-12-07T10:11:02;3.10;99.90
4079;DHT22;2054;47.858;11.156;2023-12-07T10:13:30;3.20;99.90
4079;DHT22;2054;47.858;11.156;2023-12-07T10:16:11;3.20;99.90
4079;DHT22;2054;47.858;11.156;2023-12-07T10:18:38;3.20;99.90
4079;DHT22;2054;47.858;11.156;2023-12-07T10:21:08;3.20;99.90
4079;DHT22;2054;47.858;11.156;2023-12-07T10:23:36;3.30;99.90
4079;DHT22;2054;47.858;11.156;2023-12-07T10:26:05;3.40;99.90
4079;DHT22;2054;47.858;11.156;2023-12-07T10:28:34;3.40;99.90
4079;DHT22;2054;47.858;11.156;2023-12-07T10:31:01;3.40;99.90
4079;DHT22;2054;47.858;11.156;2023-12-07T10:33:28;3.30;99.90
4079;DHT22;2054;47.858;11.156;2023-12-07T10:35:55;3.20;99.90
4079;DHT22;2054;47.858;11.156;2023-12-07T10:38:23;3.20;99.90
4079;DHT22;2054;47.858;11.156;2023-12-07T10:41:02;3.30;99.90
4079;DHT22;2054;47.858;11.156;2023-12-07T10:43:31;3.40;99.90
4079;DHT22;2054;47.858;11.156;2023-12-07T10:46:04;3.50;99.90
4079;DHT22;2054;47.858;11.156;2023-12-07T10:48:32;3.50;99.90
4079;DHT22;2054;47.858;11.156;2023-12-07T10:51:00;3.40;99.90
4079;DHT22;2054;47.858;11.156;2023-12-07T10:53:37;3.30;99.90
4079;DHT22;2054;47.858;11.156;2023-12-07T10:56:10;3.30;99.90
4079;DHT22;2054;47.858;11.156;2023-12-07T10:58:39;3.30;99.90
4079;DHT22;2054;47.858;11.156;2023-12-07T11:01:07;3.30;99.90
4079;DHT22;2054;47.858;11.156;2023-12-07T11:03:36;3.30;99.90
4079;DHT22;2054;47.858;11.156;2023-12-07T11:06:04;3.40;99.90
4079;DHT22;2054;47.858;11.156;2023-12-07T11:08:36;3.40;99.90
4079;DHT22;2054;47.858;11.156;2023-12-07T11:11:10;3.60;99.90
4079;DHT22;2054;47.858;11.156;2023-12-07T11:13:39;3.70;99.90
4079;DHT22;2054;47.858;11.156;2023-12-07T11:16:13;3.70;99.90
4079;DHT22;2054;47.858;11.156;2023-12-07T11:18:40;3.80;99.90
4079;DHT22;2054;47.858;11.156;2023-12-07T11:21:06;3.90;99.90
4079;DHT22;2054;47.858;11.156;2023-12-07T11:23:36;4.00;99.90
4079;DHT22;2054;47.858;11.156;2023-12-07T11:26:03;4.00;99.90
4079;DHT22;2054;47.858;11.156;2023-12-07T11:28:38;3.90;99.90
4079;DHT22;2054;47.858;11.156;2023-12-07T11:31:06;3.90;99.90
4079;DHT22;2054;47.858;11.156;2023-12-07T11:33:33;3.80;99.90
4079;DHT22;2054;47.858;11.156;2023-12-07T11:36:05;3.80;99.90
4079;DHT22;2054;47.858;11.156;2023-12-07T11:38:33;3.80;99.90
4079;DHT22;2054;47.858;11.156;2023-12-07T11:41:01;3.80;99.90
4079;DHT22;2054;47.858;11.156;2023-12-07T11:43:44;3.90;99.90
4079;DHT22;2054;47.858;11.156;2023-12-07T11:46:12;4.00;99.90
4079;DHT22;2054;47.858;11.156;2023-12-07T11:48:46;4.00;99.90
4079;DHT22;2054;47.858;11.156;2023-12-07T11:51:15;4.00;99.90
4079;DHT22;2054;47.858;11.156;2023-12-07T11:53:42;4.10;99.90
4079;DHT22;2054;47.858;11.156;2023-12-07T11:56:11;4.20;99.90
4079;DHT22;2054;47.858;11.156;2023-12-07T11:58:39;4.20;99.90
4079;DHT22;2054;47.858;11.156;2023-12-07T12:01:06;4.30;99.90
4079;DHT22;2054;47.858;11.156;2023-12-07T12:03:33;4.20;99.90
4079;DHT22;2054;47.858;11.156;2023-12-07T12:06:04;4.20;99.90
4079;DHT22;2054;47.858;11.156;2023-12-07T12:08:31;4.30;99.90
4079;DHT22;2054;47.858;11.156;2023-12-07T12:10:58;4.30;99.90
4079;DHT22;2054;47.858;11.156;2023-12-07T12:13:33;4.40;99.90
4079;DHT22;2054;47.858;11.156;2023-12-07T12:16:00;4.40;99.90
4079;DHT22;2054;47.858;11.156;2023-12-07T12:18:27;4.40;99.90
4079;DHT22;2054;47.858;11.156;2023-12-07T12:20:55;4.50;99.90
4079;DHT22;2054;47.858;11.156;2023-12-07T12:23:23;4.50;99.90
4079;DHT22;2054;47.858;11.156;2023-12-07T12:25:50;4.60;99.90
4079;DHT22;2054;47.858;11.156;2023-12-07T12:28:19;4.50;99.90
4079;DHT22;2054;47.858;11.156;2023-12-07T12:30:50;4.50;99.90
4079;DHT22;2054;47.858;11.156;2023-12-07T12:33:17;4.50;99.90
4079;DHT22;2054;47.858;11.156;2023-12-07T12:35:44;4.70;99.90
4079;DHT22;2054;47.858;11.156;2023-12-07T12:38:11;4.60;99.90
4079;DHT22;2054;47.858;11.156;2023-12-07T12:40:39;4.70;99.90
4079;DHT22;2054;47.858;11.156;2023-12-07T12:43:07;4.80;99.90
4079;DHT22;2054;47.858;11.156;2023-12-07T12:45:34;4.90;99.90
4079;DHT22;2054;47.858;11.156;2023-12-07T12:48:04;4.90;99.90
4079;DHT22;2054;47.858;11.156;2023-12-07T12:50:34;4.90;99.90
4079;DHT22;2054;47.858;11.156;2023-12-07T12:53:03;5.00;99.90
4079;DHT22;2054;47.858;11.156;2023-12-07T12:55:33;5.00;99.90
4079;DHT22;2054;47.858;11.156;2023-12-07T12:58:01;5.00;99.90
4079;DHT22;2054;47.858;11.156;2023-12-07T13:00:30;5.00;99.90
4079;DHT22;2054;47.858;11.156;2023-12-07T13:02:58;4.90;99.90
4079;DHT22;2054;47.858;11.156;2023-12-07T13:05:27;4.90;99.90
4079;DHT22;2054;47.858;11.156;2023-12-07T13:07:54;4.80;99.90
4079;DHT22;2054;47.858;11.156;2023-12-07T13:10:22;4.80;99.90
4079;DHT22;2054;47.858;11.156;2023-12-07T13:12:52;4.80;99.90
4079;DHT22;2054;47.858;11.156;2023-12-07T13:15:19;5.00;99.90
4079;DHT22;2054;47.858;11.156;2023-12-07T13:17:46;4.70;99.90
4079;DHT22;2054;47.858;11.156;2023-12-07T13:20:12;4.70;99.90
4079;DHT22;2054;47.858;11.156;2023-12-07T13:22:41;4.70;99.90
4079;DHT22;2054;47.858;11.156;2023-12-07T13:25:09;4.60;99.90
4079;DHT22;2054;47.858;11.156;2023-12-07T13:27:37;4.60;99.90
4079;DHT22;2054;47.858;11.156;2023-12-07T13:30:05;4.60;99.90
4079;DHT22;2054;47.858;11.156;2023-12-07T13:32:34;4.60;99.90
4079;DHT22;2054;47.858;11.156;2023-12-07T13:35:03;4.50;99.90
4079;DHT22;2054;47.858;11.156;2023-12-07T13:37:31;4.60;99.90
4079;DHT22;2054;47.858;11.156;2023-12-07T13:39:59;4.60;99.90
4079;DHT22;2054;47.858;11.156;2023-12-07T13:42:30;4.70;99.90
4079;DHT22;2054;47.858;11.156;2023-12-07T13:44:58;4.60;99.90
4079;DHT22;2054;47.858;11.156;2023-12-07T13:47:26;4.60;99.90
4079;DHT22;2054;47.858;11.156;2023-12-07T13:49:56;4.70;99.90
4079;DHT22;2054;47.858;11.156;2023-12-07T13:52:23;4.70;99.90
4079;DHT22;2054;47.858;11.156;2023-12-07T13:54:50;4.80;99.90
4079;DHT22;2054;47.858;11.156;2023-12-07T13:57:19;4.70;99.90
4079;DHT22;2054;47.858;11.156;2023-12-07T13:59:47;4.70;99.90
4079;DHT22;2054;47.858;11.156;2023-12-07T14:02:15;4.60;99.90
4079;DHT22;2054;47.858;11.156;2023-12-07T14:04:42;4.50;99.90
4079;DHT22;2054;47.858;11.156;2023-12-07T14:07:11;4.50;99.90
4079;DHT22;2054;47.858;11.156;2023-12-07T14:09:39;4.40;99.90
4079;DHT22;2054;47.858;11.156;2023-12-07T14:12:07;4.40;99.90
4079;DHT22;2054;47.858;11.156;2023-12-07T14:14:36;4.40;99.90
4079;DHT22;2054;47.858;11.156;2023-12-07T14:17:03;4.40;99.90
4079;DHT22;2054;47.858;11.156;2023-12-07T14:19:30;4.40;99.90
4079;DHT22;2054;47.858;11.156;2023-12-07T14:21:56;4.40;99.90
4079;DHT22;2054;47.858;11.156;2023-12-07T14:24:24;4.40;99.90
4079;DHT22;2054;47.858;11.156;2023-12-07T14:26:51;4.40;99.90
4079;DHT22;2054;47.858;11.156;2023-12-07T14:29:18;4.00;99.90
4079;DHT22;2054;47.858;11.156;2023-12-07T14:31:48;4.20;99.90
4079;DHT22;2054;47.858;11.156;2023-12-07T14:34:15;4.20;99.90
4079;DHT22;2054;47.858;11.156;2023-12-07T14:36:43;4.10;99.90
4079;DHT22;2054;47.858;11.156;2023-12-07T14:39:11;4.10;99.90
4079;DHT22;2054;47.858;11.156;2023-12-07T14:41:43;4.00;99.90
4079;DHT22;2054;47.858;11.156;2023-12-07T14:44:10;4.00;99.90
4079;DHT22;2054;47.858;11.156;2023-12-07T14:46:37;4.00;99.90
4079;DHT22;2054;47.858;11.156;2023-12-07T14:49:06;3.90;99.90
4079;DHT22;2054;47.858;11.156;2023-12-07T14:51:33;3.80;99.90
4079;DHT22;2054;47.858;11.156;2023-12-07T14:54:00;3.70;99.90
4079;DHT22;2054;47.858;11.156;2023-12-07T14:56:26;3.60;99.90
4079;DHT22;2054;47.858;11.156;2023-12-07T14:58:53;3.40;99.90
4079;DHT22;2054;47.858;11.156;2023-12-07T15:01:20;3.30;99.90
4079;DHT22;2054;47.858;11.156;2023-12-07T15:03:47;3.20;99.90
4079;DHT22;2054;47.858;11.156;2023-12-07T15:06:15;3.20;99.90
4079;DHT22;2054;47.858;11.156;2023-12-07T15:08:43;3.10;99.90
4079;DHT22;2054;47.858;11.156;2023-12-07T15:11:10;3.00;99.90
4079;DHT22;2054;47.858;11.156;2023-12-07T15:13:37;2.90;99.90
4079;DHT22;2054;47.858;11.156;2023-12-07T15:16:05;2.70;99.90
4079;DHT22;2054;47.858;11.156;2023-12-07T15:18:33;2.60;99.90
4079;DHT22;2054;47.858;11.156;2023-12-07T15:21:01;2.50;99.90
4079;DHT22;2054;47.858;11.156;2023-12-07T15:23:30;2.30;99.90
4079;DHT22;2054;47.858;11.156;2023-12-07T15:25:58;2.20;99.90
4079;DHT22;2054;47.858;11.156;2023-12-07T15:28:25;2.00;99.90
4079;DHT22;2054;47.858;11.156;2023-12-07T15:30:52;1.80;99.90
4079;DHT22;2054;47.858;11.156;2023-12-07T15:33:19;1.70;99.90
4079;DHT22;2054;47.858;11.156;2023-12-07T15:35:46;1.50;99.90
4079;DHT22;2054;47.858;11.156;2023-12-07T15:38:12;1.30;99.90
4079;DHT22;2054;47.858;11.156;2023-12-07T15:40:41;1.30;99.90
4079;DHT22;2054;47.858;11.156;2023-12-07T15:43:08;1.20;99.90
4079;DHT22;2054;47.858;11.156;2023-12-07T15:45:35;1.20;99.90
4079;DHT22;2054;47.858;11.156;2023-12-07T15:48:02;1.20;99.90
4079;DHT22;2054;47.858;11.156;2023-12-07T15:50:30;1.20;99.90
4079;DHT22;2054;47.858;11.156;2023-12-07T15:52:57;1.20;99.90
4079;DHT22;2054;47.858;11.156;2023-12-07T15:55:24;1.10;99.90
4079;DHT22;2054;47.858;11.156;2023-12-07T15:57:52;1.10;99.90
4079;DHT22;2054;47.858;11.156;2023-12-07T16:00:20;0.90;99.90
4079;DHT22;2054;47.858;11.156;2023-12-07T16:02:48;0.90;99.90
4079;DHT22;2054;47.858;11.156;2023-12-07T16:05:15;0.90;99.90
4079;DHT22;2054;47.858;11.156;2023-12-07T16:07:41;0.80;99.90
4079;DHT22;2054;47.858;11.156;2023-12-07T16:10:10;0.70;99.90
4079;DHT22;2054;47.858;11.156;2023-12-07T16:12:38;0.60;99.90
4079;DHT22;2054;47.858;11.156;2023-12-07T16:15:08;0.70;99.90
4079;DHT22;2054;47.858;11.156;2023-12-07T16:17:36;0.50;99.90
4079;DHT22;2054;47.858;11.156;2023-12-07T16:20:03;0.40;99.90
4079;DHT22;2054;47.858;11.156;2023-12-07T16:22:35;0.30;99.90
4079;DHT22;2054;47.858;11.156;2023-12-07T16:25:02;0.60;99.90
4079;DHT22;2054;47.858;11.156;2023-12-07T16:27:31;0.20;99.90
4079;DHT22;2054;47.858;11.156;2023-12-07T16:29:58;0.20;99.90
4079;DHT22;2054;47.858;11.156;2023-12-07T16:32:26;0.20;99.90
4079;DHT22;2054;47.858;11.156;2023-12-07T16:34:54;0.30;99.90
4079;DHT22;2054;47.858;11.156;2023-12-07T16:37:21;0.30;99.90
4079;DHT22;2054;47.858;11.156;2023-12-07T16:39:48;0.10;99.90
4079;DHT22;2054;47.858;11.156;2023-12-07T16:42:14;0.00;99.90
4079;DHT22;2054;47.858;11.156;2023-12-07T16:44:41;-0.10;99.90
4079;DHT22;2054;47.858;11.156;2023-12-07T16:47:09;0.00;99.90
4079;DHT22;2054;47.858;11.156;2023-12-07T16:49:38;0.00;99.90
4079;DHT22;2054;47.858;11.156;2023-12-07T16:52:05;-0.10;99.90
4079;DHT22;2054;47.858;11.156;2023-12-07T16:54:32;0.10;99.90
4079;DHT22;2054;47.858;11.156;2023-12-07T16:57:00;-0.10;99.90
4079;DHT22;2054;47.858;11.156;2023-12-07T16:59:27;-0.20;99.90
4079;DHT22;2054;47.858;11.156;2023-12-07T17:01:54;-0.20;99.90
4079;DHT22;2054;47.858;11.156;2023-12-07T17:04:21;-0.30;99.90
4079;DHT22;2054;47.858;11.156;2023-12-07T17:06:52;-0.40;99.90
4079;DHT22;2054;47.858;11.156;2023-12-07T17:09:21;-0.30;99.90
4079;DHT22;2054;47.858;11.156;2023-12-07T17:11:48;-0.40;99.90
4079;DHT22;2054;47.858;11.156;2023-12-07T17:14:15;-0.50;99.90
4079;DHT22;2054;47.858;11.156;2023-12-07T17:16:42;-0.40;99.90
4079;DHT22;2054;47.858;11.156;2023-12-07T17:19:09;-0.50;99.90
4079;DHT22;2054;47.858;11.156;2023-12-07T17:21:36;-0.50;99.90
4079;DHT22;2054;47.858;11.156;2023-12-07T17:24:05;-0.50;99.90
4079;DHT22;2054;47.858;11.156;2023-12-07T17:26:32;-0.50;99.90
4079;DHT22;2054;47.858;11.156;2023-12-07T17:28:59;-0.20;99.90
4079;DHT22;2054;47.858;11.156;2023-12-07T17:31:27;-0.50;99.90
4079;DHT22;2054;47.858;11.156;2023-12-07T17:33:54;-0.60;99.90
4079;DHT22;2054;47.858;11.156;2023-12-07T17:36:21;-0.60;99.90
4079;DHT22;2054;47.858;11.156;2023-12-07T17:38:48;-0.60;99.90
4079;DHT22;2054;47.858;11.156;2023-12-07T17:41:18;-0.60;99.90
4079;DHT22;2054;47.858;11.156;2023-12-07T17:43:45;-0.60;99.90
4079;DHT22;2054;47.858;11.156;2023-12-07T17:46:12;-0.70;99.90
4079;DHT22;2054;47.858;11.156;2023-12-07T17:48:42;-0.80;99.90
4079;DHT22;2054;47.858;11.156;2023-12-07T17:51:10;-1.00;99.90
4079;DHT22;2054;47.858;11.156;2023-12-07T17:53:37;-1.10;99.90
4079;DHT22;2054;47.858;11.156;2023-12-07T17:56:05;-1.20;99.90
4079;DHT22;2054;47.858;11.156;2023-12-07T17:58:33;-1.20;99.90
4079;DHT22;2054;47.858;11.156;2023-12-07T18:01:00;-1.20;99.90
4079;DHT22;2054;47.858;11.156;2023-12-07T18:03:29;-1.30;99.90
4079;DHT22;2054;47.858;11.156;2023-12-07T18:05:56;-1.30;99.90
4079;DHT22;2054;47.858;11.156;2023-12-07T18:08:23;-1.40;99.90
4079;DHT22;2054;47.858;11.156;2023-12-07T18:10:50;-1.40;99.90
4079;DHT22;2054;47.858;11.156;2023-12-07T18:13:16;-1.50;99.90
4079;DHT22;2054;47.858;11.156;2023-12-07T18:15:46;-1.70;99.90
4079;DHT22;2054;47.858;11.156;2023-12-07T18:18:13;-1.70;99.90
4079;DHT22;2054;47.858;11.156;2023-12-07T18:20:40;-1.80;99.90
4079;DHT22;2054;47.858;11.156;2023-12-07T18:23:09;-1.90;99.90
4079;DHT22;2054;47.858;11.156;2023-12-07T18:25:36;-2.00;99.90
4079;DHT22;2054;47.858;11.156;2023-12-07T18:28:03;-2.00;99.90
4079;DHT22;2054;47.858;11.156;2023-12-07T18:30:30;-1.70;99.90
4079;DHT22;2054;47.858;11.156;2023-12-07T18:32:58;-2.00;99.90
4079;DHT22;2054;47.858;11.156;2023-12-07T18:35:25;-1.90;99.90
4079;DHT22;2054;47.858;11.156;2023-12-07T18:37:54;-1.90;99.90
4079;DHT22;2054;47.858;11.156;2023-12-07T18:52:39;-2.50;99.90
4079;DHT22;2054;47.858;11.156;2023-12-07T18:55:11;-2.50;99.90
4079;DHT22;2054;47.858;11.156;2023-12-07T18:57:39;-2.40;99.90
4079;DHT22;2054;47.858;11.156;2023-12-07T19:00:12;-2.40;99.90
4079;DHT22;2054;47.858;11.156;2023-12-07T19:02:40;-2.50;99.90
4079;DHT22;2054;47.858;11.156;2023-12-07T19:05:07;-2.50;99.90
4079;DHT22;2054;47.858;11.156;2023-12-07T19:07:36;-2.40;99.90
4079;DHT22;2054;47.858;11.156;2023-12-07T19:10:04;-2.30;99.90
4079;DHT22;2054;47.858;11.156;2023-12-07T19:12:31;-2.50;99.90
4079;DHT22;2054;47.858;11.156;2023-12-07T19:14:58;-2.50;99.90
4079;DHT22;2054;47.858;11.156;2023-12-07T19:17:25;-2.50;99.90
4079;DHT22;2054;47.858;11.156;2023-12-07T19:19:52;-2.60;99.90
4079;DHT22;2054;47.858;11.156;2023-12-07T19:22:19;-2.70;99.90
4079;DHT22;2054;47.858;11.156;2023-12-07T19:24:49;-2.80;99.90
4079;DHT22;2054;47.858;11.156;2023-12-07T19:27:17;-2.80;99.90
4079;DHT22;2054;47.858;11.156;2023-12-07T19:29:44;-2.90;99.90
4079;DHT22;2054;47.858;11.156;2023-12-07T19:32:11;-3.00;99.90
4079;DHT22;2054;47.858;11.156;2023-12-07T19:34:39;-3.00;99.90
4079;DHT22;2054;47.858;11.156;2023-12-07T19:37:05;-3.00;99.90
4079;DHT22;2054;47.858;11.156;2023-12-07T19:39:33;-3.00;99.90
4079;DHT22;2054;47.858;11.156;2023-12-07T19:42:04;-3.00;99.90
4079;DHT22;2054;47.858;11.156;2023-12-07T19:44:31;-3.00;99.90
4079;DHT22;2054;47.858;11.156;2023-12-07T19:46:58;-3.10;99.90
4079;DHT22;2054;47.858;11.156;2023-12-07T19:49:25;-3.20;99.90
4079;DHT22;2054;47.858;11.156;2023-12-07T19:51:52;-3.00;99.90
4079;DHT22;2054;47.858;11.156;2023-12-07T19:54:19;-3.20;99.90
4079;DHT22;2054;47.858;11.156;2023-12-07T19:56:49;-3.20;99.90
4079;DHT22;2054;47.858;11.156;2023-12-07T19:59:17;-3.20;99.90